Time;durP1;ratioP1;P1;durP2;ratioP2;P2;SDS_P1;SDS_P2;PMS_P1;PMS_P2;Temp;Humidity;BMP_temperature;BMP_pressure;BME280_temperature;BME280_humidity;BME280_pressure;Samples;Min_cycle;Max_cycle;Signal;HPM_P1;HPM_P2
2021/08/03 00:01:40;;;;;;;11.65;7.75;;;11.00;99.90;;;;;;4973660;28;20030;-79
2021/08/03 00:04:14;;;;;;;8.48;6.25;;;10.90;99.90;;;;;;5056495;28;20034;-79
2021/08/03 00:07:00;;;;;;;11.48;7.28;;;10.90;99.90;;;;;;4974191;28;20029;-79
2021/08/03 00:09:30;;;;;;;9.70;7.30;;;10.80;99.90;;;;;;4972493;28;20039;-79
2021/08/03 00:11:56;;;;;;;9.43;6.22;;;10.80;99.90;;;;;;4974176;28;20023;-79
2021/08/03 00:14:22;;;;;;;12.77;8.05;;;10.80;99.90;;;;;;4974091;28;20384;-79
2021/08/03 00:16:49;;;;;;;9.45;7.00;;;10.80;99.90;;;;;;4988432;28;20025;-79
2021/08/03 00:19:14;;;;;;;8.75;5.97;;;10.80;99.90;;;;;;5054287;28;20039;-79
2021/08/03 00:21:40;;;;;;;7.13;5.75;;;10.70;99.90;;;;;;4964034;28;20035;-79
2021/08/03 00:24:06;;;;;;;6.93;5.63;;;10.70;99.90;;;;;;5055899;28;20027;-79
2021/08/03 00:26:32;;;;;;;8.13;5.63;;;10.60;99.90;;;;;;4988129;28;20038;-78
2021/08/03 00:28:58;;;;;;;6.93;5.75;;;10.60;99.90;;;;;;4973726;28;20038;-78
2021/08/03 00:31:25;;;;;;;7.03;4.88;;;10.60;99.90;;;;;;4971988;28;20019;-78
2021/08/03 00:33:53;;;;;;;7.43;5.65;;;10.50;99.90;;;;;;4972134;28;20027;-78
2021/08/03 00:36:23;;;;;;;6.47;5.22;;;10.50;99.90;;;;;;4973291;28;20019;-78
2021/08/03 00:38:49;;;;;;;7.30;6.05;;;10.50;99.90;;;;;;4969327;28;20043;-78
2021/08/03 00:41:42;;;;;;;8.27;6.15;;;10.50;99.90;;;;;;4971785;28;20042;-78
2021/08/03 00:44:08;;;;;;;9.00;6.05;;;10.50;99.90;;;;;;4986861;28;20133;-78
2021/08/03 00:46:35;;;;;;;8.23;6.20;;;10.50;99.90;;;;;;4972424;28;20072;-78
2021/08/03 00:49:00;;;;;;;6.28;5.10;;;10.50;99.90;;;;;;4973352;28;20027;-79
2021/08/03 00:51:26;;;;;;;7.40;5.68;;;10.50;99.90;;;;;;5056800;28;20405;-78
2021/08/03 00:53:52;;;;;;;7.75;5.75;;;10.50;99.90;;;;;;4965673;28;20374;-79
2021/08/03 00:56:17;;;;;;;8.27;5.50;;;10.60;99.90;;;;;;4966503;28;20031;-79
2021/08/03 00:58:43;;;;;;;6.88;5.70;;;10.60;99.90;;;;;;4973339;28;20484;-78
2021/08/03 01:01:10;;;;;;;9.68;6.35;;;10.60;99.90;;;;;;4971508;28;20043;-77
2021/08/03 01:03:35;;;;;;;7.97;5.65;;;10.50;99.90;;;;;;4971833;28;20019;-78
2021/08/03 01:06:03;;;;;;;7.65;6.15;;;10.50;99.90;;;;;;4988067;28;20439;-78
2021/08/03 01:08:56;;;;;;;9.45;6.00;;;10.50;99.90;;;;;;5053222;28;20031;-78
2021/08/03 01:11:34;;;;;;;8.10;5.72;;;10.50;99.90;;;;;;4962959;28;20565;-78
2021/08/03 01:14:16;;;;;;;11.13;6.25;;;10.50;99.90;;;;;;4972501;28;20023;-78
2021/08/03 01:16:55;;;;;;;11.38;6.68;;;10.50;99.90;;;;;;4963421;28;20031;-78
2021/08/03 01:19:46;;;;;;;10.82;5.88;;;10.50;99.90;;;;;;4971781;28;20080;-78
2021/08/03 01:22:35;;;;;;;9.70;6.10;;;10.50;99.90;;;;;;4987469;28;20031;-78
2021/08/03 01:25:32;;;;;;;10.50;6.45;;;10.40;99.90;;;;;;4959434;28;20040;-78
2021/08/03 01:28:07;;;;;;;7.32;5.60;;;10.40;99.90;;;;;;4966118;28;20030;-78
2021/08/03 01:30:34;;;;;;;6.72;5.40;;;10.40;99.90;;;;;;4973040;28;20066;-78
2021/08/03 01:33:01;;;;;;;9.15;6.32;;;10.40;99.90;;;;;;5052934;28;20039;-78
2021/08/03 01:35:28;;;;;;;9.15;6.00;;;10.40;99.90;;;;;;4972481;28;20038;-78
2021/08/03 01:37:58;;;;;;;8.40;6.18;;;10.40;99.90;;;;;;4970917;28;20392;-78
2021/08/03 01:40:25;;;;;;;8.75;6.43;;;10.30;99.90;;;;;;4971371;28;20043;-79
2021/08/03 01:42:51;;;;;;;7.15;6.28;;;10.30;99.90;;;;;;4971615;28;20038;-78
2021/08/03 01:45:18;;;;;;;7.03;5.60;;;10.20;99.90;;;;;;4970256;28;20102;-79
2021/08/03 01:47:44;;;;;;;6.57;4.80;;;10.30;99.90;;;;;;5052305;28;20392;-79
2021/08/03 01:50:11;;;;;;;6.03;5.38;;;10.20;99.90;;;;;;4968606;28;20019;-79
2021/08/03 01:52:39;;;;;;;8.18;6.32;;;10.20;99.90;;;;;;4972081;28;20476;-78
2021/08/03 01:55:06;;;;;;;9.95;5.65;;;10.20;99.90;;;;;;4971666;28;20106;-78
2021/08/03 01:57:33;;;;;;;10.02;5.70;;;10.20;99.90;;;;;;4972268;28;20035;-78
2021/08/03 02:00:01;;;;;;;8.70;5.03;;;10.10;99.90;;;;;;4970906;28;20480;-78
2021/08/03 02:02:27;;;;;;;7.82;5.88;;;10.20;99.90;;;;;;4971739;28;20023;-77
2021/08/03 02:04:56;;;;;;;8.80;5.13;;;10.20;99.90;;;;;;4972393;28;20019;-78
2021/08/03 02:07:21;;;;;;;6.78;5.15;;;10.20;99.90;;;;;;4970674;28;20431;-78
2021/08/03 02:09:48;;;;;;;7.95;5.07;;;10.10;99.90;;;;;;4987358;28;20015;-79
2021/08/03 02:12:14;;;;;;;8.60;6.10;;;10.10;99.90;;;;;;4972061;28;20034;-78
2021/08/03 02:14:45;;;;;;;8.90;5.88;;;10.10;99.90;;;;;;5050634;28;20074;-77
2021/08/03 02:17:22;;;;;;;11.48;7.20;;;10.10;99.90;;;;;;4959649;28;20041;-78
2021/08/03 02:19:48;;;;;;;10.57;5.97;;;10.10;99.90;;;;;;4972054;28;20092;-78
2021/08/03 02:22:16;;;;;;;9.70;6.25;;;10.10;99.90;;;;;;5052179;28;20023;-78
2021/08/03 02:24:42;;;;;;;10.98;6.63;;;10.10;99.90;;;;;;4961705;28;20114;-78
2021/08/03 02:27:09;;;;;;;10.50;6.60;;;10.10;99.90;;;;;;4971314;28;20027;-78
2021/08/03 02:29:37;;;;;;;9.02;6.68;;;10.00;99.90;;;;;;4971902;28;20389;-79
2021/08/03 02:32:03;;;;;;;12.80;6.68;;;10.00;99.90;;;;;;5054785;28;20027;-78
2021/08/03 02:34:33;;;;;;;7.63;6.22;;;10.00;99.90;;;;;;4971912;28;20037;-78
2021/08/03 02:37:03;;;;;;;10.80;6.78;;;9.90;99.90;;;;;;4969876;28;20156;-77
2021/08/03 02:39:30;;;;;;;11.98;6.50;;;10.00;99.90;;;;;;4972094;28;20035;-78
2021/08/03 02:41:58;;;;;;;9.05;6.05;;;9.90;99.90;;;;;;4986005;28;20039;-78
2021/08/03 02:44:25;;;;;;;6.38;5.72;;;9.90;99.90;;;;;;4952202;28;20392;-78
2021/08/03 02:46:54;;;;;;;5.97;5.38;;;9.80;99.90;;;;;;4960194;28;20472;-78
2021/08/03 02:49:34;;;;;;;8.68;5.65;;;9.80;99.90;;;;;;5051388;28;20503;-78
2021/08/03 02:52:04;;;;;;;7.63;5.75;;;9.80;99.90;;;;;;4957642;28;20045;-78
2021/08/03 02:54:34;;;;;;;7.32;5.65;;;9.80;99.90;;;;;;4970363;28;20023;-78
2021/08/03 02:57:05;;;;;;;6.72;4.90;;;10.00;99.90;;;;;;5050922;28;20053;-78
2021/08/03 02:59:35;;;;;;;6.68;4.50;;;9.80;99.90;;;;;;4961924;28;20089;-78
2021/08/03 03:02:06;;;;;;;10.40;5.45;;;9.80;99.90;;;;;;4957998;28;20530;-78
2021/08/03 03:04:41;;;;;;;6.28;5.32;;;9.70;99.90;;;;;;5054980;28;20027;-78
2021/08/03 03:07:13;;;;;;;7.15;6.25;;;9.60;99.90;;;;;;4969646;28;20396;-78
2021/08/03 03:09:41;;;;;;;11.43;8.30;;;9.60;99.90;;;;;;4986329;28;20534;-78
2021/08/03 03:12:08;;;;;;;7.65;5.60;;;9.50;99.90;;;;;;4971171;28;20027;-78
2021/08/03 03:14:36;;;;;;;7.63;4.53;;;9.40;99.90;;;;;;4970852;28;20041;-78
2021/08/03 03:17:03;;;;;;;6.57;4.10;;;9.40;99.90;;;;;;4970679;28;20022;-78
2021/08/03 03:19:33;;;;;;;5.50;4.60;;;9.40;99.90;;;;;;4986203;28;20038;-78
2021/08/03 03:22:02;;;;;;;6.50;4.25;;;9.50;99.90;;;;;;4967818;28;20110;-78
2021/08/03 03:24:32;;;;;;;4.45;3.97;;;9.40;99.90;;;;;;4969959;28;20019;-78
2021/08/03 03:27:00;;;;;;;6.88;4.15;;;9.40;99.90;;;;;;4969919;28;20023;-78
2021/08/03 03:29:27;;;;;;;7.13;3.85;;;9.40;99.90;;;;;;4971085;28;20027;-79
2021/08/03 03:31:55;;;;;;;6.43;4.55;;;9.40;99.90;;;;;;5051258;28;20027;-79
2021/08/03 03:34:23;;;;;;;4.93;4.38;;;9.50;99.90;;;;;;4951823;28;20024;-79
2021/08/03 03:36:50;;;;;;;4.65;3.92;;;9.50;99.90;;;;;;4956476;28;20393;-79
2021/08/03 03:39:16;;;;;;;9.15;4.35;;;9.60;99.90;;;;;;4985728;28;20472;-79
2021/08/03 03:41:48;;;;;;;7.40;4.60;;;9.70;99.90;;;;;;4970861;28;20106;-78
2021/08/03 03:44:14;;;;;;;8.88;4.50;;;9.70;99.90;;;;;;4970819;28;20026;-79
2021/08/03 03:46:43;;;;;;;9.52;5.43;;;9.70;99.90;;;;;;4970231;28;20038;-79
2021/08/03 03:49:11;;;;;;;9.05;5.32;;;9.80;99.90;;;;;;4969507;28;20034;-79
2021/08/03 03:51:41;;;;;;;7.72;5.50;;;9.80;99.90;;;;;;4970469;28;20035;-79
2021/08/03 03:54:08;;;;;;;7.00;5.75;;;9.80;99.90;;;;;;4969509;28;20023;-79
2021/08/03 03:56:42;;;;;;;6.97;6.05;;;9.80;99.90;;;;;;4970426;28;20037;-77
2021/08/03 03:59:10;;;;;;;7.00;6.30;;;9.80;99.90;;;;;;4967965;28;20076;-78
2021/08/03 04:01:38;;;;;;;7.32;6.22;;;9.80;99.90;;;;;;5050702;28;20039;-79
2021/08/03 04:04:10;;;;;;;7.60;5.40;;;9.90;99.90;;;;;;4960843;28;20023;-79
2021/08/03 04:06:36;;;;;;;7.20;5.68;;;9.90;99.90;;;;;;5053765;28;20396;-78
2021/08/03 04:09:02;;;;;;;8.45;5.80;;;10.10;99.90;;;;;;4970368;28;20035;-79
2021/08/03 04:11:28;;;;;;;11.20;5.97;;;10.30;99.90;;;;;;4970143;28;20035;-79
2021/08/03 04:13:55;;;;;;;7.53;5.85;;;10.40;99.90;;;;;;4960418;28;20027;-79
2021/08/03 04:16:21;;;;;;;7.50;6.10;;;10.70;99.90;;;;;;4969146;28;20473;-78
2021/08/03 04:18:47;;;;;;;7.68;5.80;;;10.90;99.90;;;;;;5053285;28;20026;-78
2021/08/03 04:21:13;;;;;;;7.60;5.05;;;11.00;99.90;;;;;;4980568;28;20027;-78
2021/08/03 04:23:39;;;;;;;5.75;5.15;;;11.10;99.90;;;;;;4970844;28;20445;-79
2021/08/03 04:26:05;;;;;;;10.13;5.93;;;11.30;99.90;;;;;;4988710;28;20026;-79
2021/08/03 04:28:30;;;;;;;9.55;6.15;;;11.40;99.90;;;;;;4973144;28;20030;-78
2021/08/03 04:30:59;;;;;;;6.82;4.70;;;11.50;99.90;;;;;;4973714;28;20365;-79
2021/08/03 04:33:26;;;;;;;6.88;4.78;;;11.60;99.90;;;;;;4973189;28;20110;-78
2021/08/03 04:35:51;;;;;;;6.18;5.57;;;11.60;99.90;;;;;;4972472;28;20027;-79
2021/08/03 04:38:17;;;;;;;6.65;5.32;;;11.70;99.90;;;;;;4973110;28;20058;-78
2021/08/03 04:40:43;;;;;;;9.55;6.47;;;11.80;99.90;;;;;;4972299;28;20043;-78
2021/08/03 04:43:08;;;;;;;9.38;7.35;;;12.00;99.90;;;;;;4960972;28;20493;-78
2021/08/03 04:45:34;;;;;;;6.97;5.00;;;12.10;99.90;;;;;;4952953;29;20459;-79
2021/08/03 04:48:00;;;;;;;7.43;6.40;;;12.20;99.90;;;;;;4967380;28;20027;-78
2021/08/03 04:50:27;;;;;;;8.23;6.75;;;12.30;99.90;;;;;;4973457;28;20052;-79
2021/08/03 04:52:55;;;;;;;10.25;5.90;;;12.40;99.90;;;;;;4972844;28;20054;-78
2021/08/03 04:55:21;;;;;;;7.60;6.82;;;12.60;99.90;;;;;;4969515;28;20037;-78
2021/08/03 04:57:47;;;;;;;13.80;8.77;;;12.70;99.90;;;;;;4969147;28;20396;-79
2021/08/03 05:00:15;;;;;;;12.35;8.73;;;12.90;99.90;;;;;;4986077;28;20053;-78
2021/08/03 05:02:41;;;;;;;12.30;8.48;;;13.00;99.90;;;;;;4970803;28;20019;-78
2021/08/03 05:05:08;;;;;;;12.32;8.73;;;13.10;99.90;;;;;;4970716;28;20492;-78
2021/08/03 05:07:34;;;;;;;12.43;9.57;;;13.20;99.90;;;;;;4968709;28;20019;-79
2021/08/03 05:10:05;;;;;;;18.55;11.13;;;13.40;99.90;;;;;;4967017;28;20313;-78
2021/08/03 05:12:32;;;;;;;16.60;9.90;;;13.50;99.90;;;;;;4969686;28;20495;-78
2021/08/03 05:15:00;;;;;;;13.13;10.43;;;13.60;99.90;;;;;;4969374;28;20370;-78
2021/08/03 05:17:31;;;;;;;17.83;10.77;;;13.70;99.90;;;;;;4969083;28;20019;-80
2021/08/03 05:19:57;;;;;;;17.92;12.40;;;13.80;99.90;;;;;;4967923;28;20027;-78
2021/08/03 05:22:24;;;;;;;16.63;12.52;;;13.80;99.90;;;;;;4984313;28;20031;-82
2021/08/03 05:24:50;;;;;;;16.83;12.18;;;13.80;99.90;;;;;;4968164;28;20043;-83
2021/08/03 05:27:15;;;;;;;20.00;12.35;;;13.90;99.90;;;;;;4971226;28;20432;-83
2021/08/03 05:29:41;;;;;;;20.88;13.73;;;14.00;99.90;;;;;;4966539;28;20031;-83
2021/08/03 05:32:07;;;;;;;24.13;16.30;;;14.10;99.90;;;;;;4968403;28;20077;-82
2021/08/03 05:34:33;;;;;;;31.42;18.23;;;14.20;99.90;;;;;;4984651;28;20038;-82
2021/08/03 05:37:02;;;;;;;24.52;15.48;;;14.30;99.90;;;;;;4970628;28;20035;-80
2021/08/03 05:39:27;;;;;;;23.23;15.05;;;14.40;99.90;;;;;;4969863;28;20035;-80
2021/08/03 05:41:53;;;;;;;25.60;17.05;;;14.60;99.90;;;;;;4963017;28;20053;-81
2021/08/03 05:44:19;;;;;;;22.42;13.10;;;14.70;99.90;;;;;;4970568;28;20019;-79
2021/08/03 05:46:44;;;;;;;27.65;17.20;;;14.90;99.90;;;;;;4969857;28;20038;-81
2021/08/03 05:49:10;;;;;;;27.27;18.27;;;15.00;99.90;;;;;;4969764;28;20105;-81
2021/08/03 05:51:35;;;;;;;26.90;17.98;;;15.10;99.90;;;;;;4985804;28;20039;-80
2021/08/03 05:54:01;;;;;;;27.90;19.55;;;15.10;99.90;;;;;;4982612;28;20037;-79
2021/08/03 05:56:27;;;;;;;26.73;17.15;;;15.10;99.90;;;;;;4970276;28;20496;-80
2021/08/03 05:58:53;;;;;;;33.22;20.45;;;15.30;99.90;;;;;;4980828;28;20488;-81
2021/08/03 06:01:18;;;;;;;32.75;19.27;;;15.40;99.90;;;;;;4952572;28;20574;-80
2021/08/03 06:03:44;;;;;;;25.73;19.15;;;15.40;99.90;;;;;;4968031;28;20023;-81
2021/08/03 06:06:15;;;;;;;28.70;19.40;;;15.50;99.90;;;;;;4965080;28;20055;-81
2021/08/03 06:08:43;;;;;;;28.08;19.90;;;15.60;99.90;;;;;;4966724;28;20561;-81
2021/08/03 06:11:16;;;;;;;26.88;17.30;;;15.70;99.90;;;;;;4955780;28;20392;-82
2021/08/03 06:13:46;;;;;;;27.85;18.77;;;15.80;99.90;;;;;;4967528;28;20062;-80
2021/08/03 06:16:16;;;;;;;27.73;18.23;;;15.90;99.90;;;;;;4970046;28;20476;-81
2021/08/03 06:18:44;;;;;;;31.77;18.55;;;16.00;99.90;;;;;;4985971;28;20019;-82
2021/08/03 06:21:10;;;;;;;29.50;19.08;;;16.10;99.90;;;;;;4971997;28;20062;-82
2021/08/03 06:23:36;;;;;;;29.42;19.30;;;16.20;99.90;;;;;;4968615;28;20081;-82
2021/08/03 06:26:03;;;;;;;27.52;17.77;;;16.20;99.90;;;;;;4968579;28;20409;-83
2021/08/03 06:28:29;;;;;;;28.52;19.35;;;16.40;99.90;;;;;;4969997;28;20030;-82
2021/08/03 06:30:57;;;;;;;27.92;19.10;;;16.40;99.90;;;;;;4984727;28;20023;-83
2021/08/03 06:33:23;;;;;;;24.42;16.73;;;16.60;99.90;;;;;;4984612;28;20034;-82
2021/08/03 06:35:50;;;;;;;23.42;15.93;;;16.70;99.90;;;;;;4970039;28;20444;-83
2021/08/03 06:38:17;;;;;;;21.70;15.32;;;16.80;99.90;;;;;;4968721;28;20096;-82
2021/08/03 06:40:47;;;;;;;20.33;14.45;;;16.90;99.90;;;;;;4970899;28;20047;-82
2021/08/03 06:43:33;;;;;;;19.85;13.82;;;16.90;99.90;;;;;;4986659;28;20031;-82
2021/08/03 06:46:10;;;;;;;18.10;13.70;;;16.90;99.90;;;;;;4986575;28;20023;-82
2021/08/03 06:49:02;;;;;;;20.50;13.35;;;17.10;99.90;;;;;;4970616;28;20015;-82
2021/08/03 06:51:34;;;;;;;21.93;12.73;;;17.20;99.90;;;;;;4971973;28;20022;-82
2021/08/03 06:54:06;;;;;;;18.05;12.77;;;17.40;99.90;;;;;;4970821;28;20294;-82
2021/08/03 06:56:57;;;;;;;20.38;13.43;;;17.60;99.90;;;;;;4971731;28;20019;-82
2021/08/03 06:59:26;;;;;;;24.38;12.50;;;17.60;99.90;;;;;;4970474;28;20046;-83
2021/08/03 07:02:08;;;;;;;20.08;12.48;;;17.80;99.90;;;;;;4970282;28;20070;-82
2021/08/03 07:04:43;;;;;;;20.85;13.32;;;17.90;99.90;;;;;;4971660;28;20023;-83
2021/08/03 07:07:10;;;;;;;20.35;14.18;;;17.90;99.90;;;;;;4971326;28;20045;-83
2021/08/03 07:09:41;;;;;;;15.38;10.75;;;18.10;99.90;;;;;;4970613;28;20019;-82
2021/08/03 07:12:08;;;;;;;15.95;10.80;;;18.10;99.90;;;;;;4951849;28;20477;-82
2021/08/03 07:14:36;;;;;;;15.30;11.50;;;18.30;99.90;;;;;;4952231;29;20023;-82
2021/08/03 07:17:03;;;;;;;13.40;10.43;;;18.40;99.90;;;;;;4950744;29;20436;-82
2021/08/03 07:19:30;;;;;;;13.57;10.23;;;18.50;99.90;;;;;;4952121;29;20488;-82
2021/08/03 07:21:57;;;;;;;15.73;10.48;;;18.60;99.90;;;;;;4966656;28;20397;-82
2021/08/03 07:24:23;;;;;;;15.20;8.82;;;18.80;99.90;;;;;;4952034;29;20028;-82
2021/08/03 07:26:49;;;;;;;11.07;7.82;;;18.90;99.90;;;;;;4950645;28;20042;-82
2021/08/03 07:29:14;;;;;;;9.38;7.43;;;19.00;99.90;;;;;;4950963;29;20042;-82
2021/08/03 07:31:42;;;;;;;10.30;7.82;;;19.20;99.90;;;;;;4951935;29;20042;-82
2021/08/03 07:34:08;;;;;;;7.53;6.68;;;19.40;99.90;;;;;;4950621;29;20024;-82
2021/08/03 07:36:34;;;;;;;9.75;6.30;;;19.60;99.90;;;;;;4966954;28;20023;-82
2021/08/03 07:39:04;;;;;;;11.98;7.18;;;19.50;99.90;;;;;;4950638;28;20031;-82
2021/08/03 07:41:31;;;;;;;11.45;6.60;;;19.40;99.90;;;;;;4979159;28;20038;-83
2021/08/03 07:43:57;;;;;;;6.82;5.97;;;19.50;99.90;;;;;;4969814;28;20023;-82
2021/08/03 07:46:23;;;;;;;10.38;7.22;;;19.50;96.70;;;;;;4969872;28;20228;-82
2021/08/03 07:48:52;;;;;;;9.32;5.10;;;19.60;95.70;;;;;;4969742;28;20018;-82
2021/08/03 07:51:19;;;;;;;7.68;5.97;;;19.60;93.70;;;;;;4969729;28;20125;-83
2021/08/03 07:53:46;;;;;;;6.85;5.72;;;19.70;93.40;;;;;;4972032;28;20030;-83
2021/08/03 07:56:12;;;;;;;6.88;5.03;;;19.80;92.90;;;;;;4972605;28;20026;-82
2021/08/03 07:58:38;;;;;;;9.80;6.13;;;20.00;95.50;;;;;;4963569;28;20027;-83
2021/08/03 08:01:04;;;;;;;8.75;6.40;;;20.00;87.70;;;;;;4954698;29;20393;-83
2021/08/03 08:03:32;;;;;;;10.57;6.00;;;20.10;86.70;;;;;;4953693;29;20034;-83
2021/08/03 08:05:58;;;;;;;7.05;5.20;;;20.20;89.70;;;;;;4953626;29;20023;-83
2021/08/03 08:08:23;;;;;;;7.47;4.72;;;20.20;88.70;;;;;;4969703;28;20057;-83
2021/08/03 08:10:49;;;;;;;5.93;4.82;;;20.20;85.60;;;;;;4961499;28;20031;-83
2021/08/03 08:13:15;;;;;;;8.30;6.03;;;20.30;85.50;;;;;;4973110;28;20451;-83
2021/08/03 08:15:40;;;;;;;6.93;5.43;;;20.50;87.20;;;;;;4974127;28;20034;-83
2021/08/03 08:18:08;;;;;;;10.57;6.63;;;20.60;85.90;;;;;;4973979;28;20031;-83
2021/08/03 08:20:35;;;;;;;8.23;6.47;;;20.60;82.60;;;;;;4972782;28;20399;-83
2021/08/03 08:23:00;;;;;;;6.93;5.65;;;20.40;81.80;;;;;;4973906;28;20063;-83
2021/08/03 08:25:27;;;;;;;6.70;5.07;;;20.60;82.10;;;;;;4973960;28;20652;-83
2021/08/03 08:27:53;;;;;;;13.23;5.85;;;20.60;83.70;;;;;;4973185;28;20097;-83
2021/08/03 08:30:19;;;;;;;9.30;5.72;;;20.50;83.50;;;;;;4973872;28;20026;-83
2021/08/03 08:32:45;;;;;;;7.90;5.50;;;20.40;83.90;;;;;;4973876;28;20027;-84
2021/08/03 08:35:11;;;;;;;8.68;6.15;;;20.40;79.60;;;;;;4972506;28;20077;-83
2021/08/03 08:37:37;;;;;;;10.70;6.47;;;20.50;77.00;;;;;;4972548;28;20035;-83
2021/08/03 08:40:08;;;;;;;7.07;5.05;;;20.60;78.30;;;;;;4971885;28;20062;-83
2021/08/03 08:42:35;;;;;;;10.45;6.35;;;20.90;81.00;;;;;;4954275;29;20396;-82
2021/08/03 08:45:03;;;;;;;8.85;6.30;;;21.10;82.50;;;;;;4994449;28;20027;-83
2021/08/03 08:47:29;;;;;;;7.97;5.90;;;21.20;78.70;;;;;;4982329;28;20065;-83
2021/08/03 08:50:02;;;;;;;6.30;4.10;;;21.40;75.10;;;;;;4986489;28;20118;-83
2021/08/03 08:52:28;;;;;;;7.30;5.00;;;21.30;72.70;;;;;;4972937;28;20023;-83
2021/08/03 08:54:54;;;;;;;8.02;4.97;;;21.30;75.80;;;;;;4972410;28;20104;-85
2021/08/03 08:57:19;;;;;;;5.57;4.78;;;21.40;75.40;;;;;;4971521;28;20102;-82
2021/08/03 08:59:45;;;;;;;5.22;4.32;;;21.50;75.70;;;;;;4986445;28;20026;-83
2021/08/03 09:02:12;;;;;;;5.30;4.78;;;21.60;72.10;;;;;;4986480;28;20092;-82
2021/08/03 09:04:44;;;;;;;5.97;4.13;;;21.70;70.20;;;;;;4968256;28;20050;-82
2021/08/03 09:07:10;;;;;;;4.73;4.33;;;21.80;68.90;;;;;;4965625;28;20031;-82
2021/08/03 09:09:41;;;;;;;9.50;3.97;;;21.90;68.90;;;;;;4968157;28;20019;-82
2021/08/03 09:12:08;;;;;;;4.68;3.58;;;22.00;70.60;;;;;;4974293;28;20028;-83
2021/08/03 09:14:35;;;;;;;4.07;2.95;;;22.20;69.70;;;;;;4967954;28;20034;-83
2021/08/03 09:17:02;;;;;;;3.90;2.90;;;22.20;64.90;;;;;;4967998;28;20295;-83
2021/08/03 09:19:37;;;;;;;4.50;3.53;;;22.20;65.50;;;;;;4967702;28;20119;-83
2021/08/03 09:22:13;;;;;;;5.40;4.90;;;22.50;68.70;;;;;;4964644;28;20105;-82
2021/08/03 09:24:40;;;;;;;4.97;3.28;;;22.50;68.70;;;;;;4953060;28;20031;-84
2021/08/03 09:27:06;;;;;;;2.88;2.67;;;22.60;68.00;;;;;;4998047;28;20022;-84
2021/08/03 09:29:45;;;;;;;4.68;2.55;;;22.80;66.30;;;;;;4972248;28;20109;-85
2021/08/03 09:32:11;;;;;;;3.70;3.40;;;23.00;64.80;;;;;;4987548;28;20034;-86
2021/08/03 09:34:37;;;;;;;2.50;2.28;;;22.80;64.30;;;;;;4973080;28;20377;-85
2021/08/03 09:37:03;;;;;;;4.25;2.72;;;22.80;63.20;;;;;;4972904;28;20028;-85
2021/08/03 09:39:43;;;;;;;2.20;2.10;;;22.90;63.80;;;;;;4973036;28;20072;-85
2021/08/03 09:42:16;;;;;;;5.63;4.47;;;22.80;61.00;;;;;;4987701;28;20515;-84
2021/08/03 09:44:48;;;;;;;3.40;3.10;;;23.00;63.90;;;;;;4972866;28;20019;-84
2021/08/03 09:47:14;;;;;;;3.17;2.50;;;22.90;61.80;;;;;;4972861;28;20033;-84
2021/08/03 09:49:43;;;;;;;4.32;2.85;;;23.10;63.00;;;;;;4972670;28;20023;-84
2021/08/03 09:52:14;;;;;;;3.67;3.28;;;23.10;63.50;;;;;;4972084;28;20080;-85
2021/08/03 09:54:40;;;;;;;4.10;3.80;;;22.90;60.60;;;;;;4987529;28;20373;-84
2021/08/03 09:57:20;;;;;;;5.30;4.35;;;23.10;60.90;;;;;;4971794;28;20037;-83
2021/08/03 09:59:46;;;;;;;5.10;3.03;;;23.20;59.40;;;;;;4972257;28;20031;-88
2021/08/03 10:02:17;;;;;;;2.13;1.90;;;23.40;61.10;;;;;;4972566;28;20038;-84
2021/08/03 10:04:44;;;;;;;2.53;2.30;;;23.30;58.70;;;;;;4971709;28;20037;-84
2021/08/03 10:07:11;;;;;;;4.55;2.10;;;23.20;60.10;;;;;;4972246;28;20080;-83
2021/08/03 10:09:38;;;;;;;4.53;2.00;;;23.20;62.60;;;;;;4971886;28;20027;-89
2021/08/03 10:12:04;;;;;;;2.53;2.25;;;23.30;61.50;;;;;;4972233;28;20080;-90
2021/08/03 10:14:30;;;;;;;4.82;1.92;;;23.50;58.50;;;;;;4970919;28;20027;-88
2021/08/03 10:16:56;;;;;;;1.77;1.67;;;23.40;58.60;;;;;;4986129;28;20105;-90
2021/08/03 10:19:24;;;;;;;1.50;1.40;;;23.40;56.90;;;;;;4972336;28;20015;-87
2021/08/03 10:22:14;;;;;;;2.00;1.80;;;23.50;56.00;;;;;;4971661;28;20035;-85
2021/08/03 10:24:51;;;;;;;2.22;1.70;;;23.70;57.90;;;;;;4970479;28;20021;-86
2021/08/03 10:27:16;;;;;;;1.90;1.80;;;23.80;59.00;;;;;;4967721;28;20026;-83
2021/08/03 10:29:48;;;;;;;1.63;1.52;;;23.80;57.80;;;;;;4971102;28;20042;-85
2021/08/03 10:32:43;;;;;;;3.50;1.73;;;23.90;56.70;;;;;;4968572;28;20018;-83
2021/08/03 10:35:13;;;;;;;5.75;2.03;;;24.10;56.30;;;;;;4969874;28;20270;-83
2021/08/03 10:38:00;;;;;;;2.95;1.77;;;24.00;54.60;;;;;;4965891;28;20034;-84
2021/08/03 10:40:44;;;;;;;3.80;2.95;;;24.30;56.70;;;;;;4968308;28;20066;-84
2021/08/03 10:43:35;;;;;;;4.05;2.00;;;24.50;56.90;;;;;;4967977;28;20027;-83
2021/08/03 10:46:06;;;;;;;2.20;2.00;;;24.50;56.30;;;;;;4957840;28;20119;-82
2021/08/03 10:48:38;;;;;;;2.47;2.20;;;24.60;56.00;;;;;;4967159;28;20480;-83
2021/08/03 10:51:15;;;;;;;3.47;1.45;;;24.60;54.90;;;;;;4982686;28;20708;-83
2021/08/03 10:54:04;;;;;;;1.40;1.30;;;24.60;55.30;;;;;;4966693;28;20065;-81
2021/08/03 10:57:01;;;;;;;1.60;1.50;;;24.50;54.10;;;;;;4968802;28;20584;-80
2021/08/03 10:59:35;;;;;;;2.15;1.88;;;24.30;53.90;;;;;;4962710;28;20088;-82
2021/08/03 11:02:03;;;;;;;1.80;1.70;;;24.10;55.00;;;;;;4977830;28;20050;-81
2021/08/03 11:04:47;;;;;;;4.55;1.65;;;23.90;54.90;;;;;;4980915;28;20027;-81
2021/08/03 11:07:32;;;;;;;1.92;1.80;;;24.10;55.90;;;;;;4963547;28;20057;-82
2021/08/03 11:10:01;;;;;;;3.40;2.03;;;24.10;56.90;;;;;;4976249;28;20263;-81
2021/08/03 11:12:38;;;;;;;2.33;2.10;;;24.20;56.90;;;;;;4964703;28;20050;-81
2021/08/03 11:15:22;;;;;;;1.88;1.77;;;23.90;55.30;;;;;;4985385;28;20030;-81
2021/08/03 11:18:08;;;;;;;2.00;1.90;;;24.00;55.00;;;;;;4963961;28;20480;-82
2021/08/03 11:20:34;;;;;;;2.00;1.80;;;23.90;54.80;;;;;;4977256;28;20389;-82
2021/08/03 11:23:05;;;;;;;1.80;1.70;;;23.90;56.20;;;;;;4976332;28;20118;-82
2021/08/03 11:25:31;;;;;;;3.38;1.95;;;23.90;55.30;;;;;;4969736;28;20015;-83
2021/08/03 11:28:17;;;;;;;1.85;1.75;;;24.20;54.80;;;;;;4969014;28;20026;-82
2021/08/03 11:30:45;;;;;;;2.75;2.25;;;24.30;54.10;;;;;;4969663;28;20045;-83
2021/08/03 11:33:11;;;;;;;2.83;2.15;;;24.40;54.30;;;;;;4969798;28;20026;-82
2021/08/03 11:35:38;;;;;;;2.13;1.90;;;24.40;55.50;;;;;;4967339;28;20034;-83
2021/08/03 11:38:05;;;;;;;2.83;2.50;;;24.30;54.60;;;;;;4965681;28;20533;-83
2021/08/03 11:40:31;;;;;;;2.40;2.20;;;24.20;54.80;;;;;;4966037;28;20118;-82
2021/08/03 11:42:58;;;;;;;2.08;1.85;;;24.00;54.40;;;;;;4963006;28;20530;-82
2021/08/03 11:45:24;;;;;;;2.05;1.95;;;24.00;56.10;;;;;;4965441;28;20026;-83
2021/08/03 11:47:56;;;;;;;2.47;2.22;;;24.00;56.30;;;;;;4966813;28;20058;-83
2021/08/03 11:50:32;;;;;;;2.43;1.93;;;23.80;56.20;;;;;;4968630;28;20023;-83
2021/08/03 11:53:14;;;;;;;1.80;1.60;;;23.70;56.80;;;;;;4968278;28;20031;-83
2021/08/03 11:55:55;;;;;;;2.08;1.92;;;24.00;57.70;;;;;;4985018;28;20019;-83
2021/08/03 11:58:26;;;;;;;1.88;1.67;;;24.30;57.50;;;;;;4970813;28;20118;-82
2021/08/03 12:00:54;;;;;;;1.92;1.52;;;24.40;56.70;;;;;;4970717;28;20428;-82
2021/08/03 12:03:34;;;;;;;4.85;1.95;;;24.50;53.50;;;;;;4970663;28;20023;-82
2021/08/03 12:06:04;;;;;;;1.88;1.77;;;24.80;54.70;;;;;;4969392;28;20076;-83
2021/08/03 12:08:39;;;;;;;2.85;1.52;;;24.80;52.90;;;;;;4970913;28;20490;-83
2021/08/03 12:11:05;;;;;;;1.98;1.80;;;25.10;54.60;;;;;;4970417;28;20023;-83
2021/08/03 12:13:36;;;;;;;3.88;1.60;;;25.20;54.40;;;;;;4969958;28;20122;-83
2021/08/03 12:16:04;;;;;;;2.88;1.80;;;25.40;53.40;;;;;;4970550;28;20038;-83
2021/08/03 12:18:40;;;;;;;1.17;1.13;;;25.30;51.40;;;;;;4970351;28;20027;-82
2021/08/03 12:21:06;;;;;;;1.65;1.55;;;25.20;51.70;;;;;;4970794;28;20039;-83
2021/08/03 12:23:34;;;;;;;1.98;1.88;;;25.10;50.50;;;;;;4970445;28;20464;-83
2021/08/03 12:26:03;;;;;;;2.40;1.50;;;25.10;50.80;;;;;;4970411;28;20026;-82
2021/08/03 12:28:28;;;;;;;1.70;1.58;;;25.20;52.00;;;;;;4970556;28;20459;-84
2021/08/03 12:30:54;;;;;;;2.78;1.67;;;25.20;53.30;;;;;;4970533;28;20058;-84
2021/08/03 12:33:28;;;;;;;2.40;1.92;;;25.30;50.20;;;;;;4970449;28;20387;-82
2021/08/03 12:36:06;;;;;;;3.80;1.60;;;25.30;50.70;;;;;;4953210;28;20088;-83
2021/08/03 12:38:32;;;;;;;2.42;1.95;;;24.90;52.50;;;;;;4951416;28;20135;-83
2021/08/03 12:40:58;;;;;;;1.75;1.55;;;24.50;50.60;;;;;;4954183;29;20118;-83
2021/08/03 12:43:40;;;;;;;1.58;1.48;;;24.40;51.60;;;;;;4954201;29;20027;-83
2021/08/03 12:46:06;;;;;;;1.73;1.55;;;24.40;52.00;;;;;;4954160;29;20031;-83
2021/08/03 12:48:32;;;;;;;1.55;1.45;;;24.60;53.80;;;;;;4954070;29;20508;-83
2021/08/03 12:51:02;;;;;;;1.70;1.40;;;24.80;52.70;;;;;;4952787;29;20027;-83
2021/08/03 12:53:30;;;;;;;1.92;1.70;;;25.10;51.40;;;;;;4954048;29;20130;-83
2021/08/03 12:56:00;;;;;;;1.35;1.20;;;25.30;51.00;;;;;;4953754;29;20024;-83